sensor_id;sensor_type;location;lat;lon;timestamp;P1;durP1;ratioP1;P2;durP2;ratioP2
9526;SDS011;4802;51.494;6.770;2023-03-19T00:01:25;3.10;;;2.20;;
9526;SDS011;4802;51.494;6.770;2023-03-19T00:03:54;2.60;;;2.50;;
9526;SDS011;4802;51.494;6.770;2023-03-19T01:08:45;1.67;;;1.67;;
9526;SDS011;4802;51.494;6.770;2023-03-19T01:11:15;3.97;;;1.90;;
9526;SDS011;4802;51.494;6.770;2023-03-19T01:13:59;2.17;;;2.07;;
9526;SDS011;4802;51.494;6.770;2023-03-19T01:16:32;1.43;;;1.37;;
9526;SDS011;4802;51.494;6.770;2023-03-19T01:19:02;2.00;;;1.87;;
9526;SDS011;4802;51.494;6.770;2023-03-19T01:21:34;1.83;;;1.37;;
9526;SDS011;4802;51.494;6.770;2023-03-19T01:24:05;1.40;;;1.40;;
9526;SDS011;4802;51.494;6.770;2023-03-19T01:26:44;2.10;;;1.47;;
9526;SDS011;4802;51.494;6.770;2023-03-19T01:29:28;1.40;;;1.30;;
9526;SDS011;4802;51.494;6.770;2023-03-19T01:31:58;1.87;;;1.77;;
9526;SDS011;4802;51.494;6.770;2023-03-19T01:34:54;1.43;;;1.33;;
9526;SDS011;4802;51.494;6.770;2023-03-19T01:37:25;1.10;;;1.10;;
9526;SDS011;4802;51.494;6.770;2023-03-19T01:40:01;1.80;;;1.70;;
9526;SDS011;4802;51.494;6.770;2023-03-19T01:42:49;3.10;;;2.80;;
9526;SDS011;4802;51.494;6.770;2023-03-19T01:45:34;1.10;;;1.07;;
9526;SDS011;4802;51.494;6.770;2023-03-19T01:48:19;6.87;;;1.10;;
9526;SDS011;4802;51.494;6.770;2023-03-19T01:50:49;1.27;;;1.23;;
9526;SDS011;4802;51.494;6.770;2023-03-19T01:53:23;1.57;;;1.50;;
9526;SDS011;4802;51.494;6.770;2023-03-19T01:55:56;1.00;;;0.80;;
9526;SDS011;4802;51.494;6.770;2023-03-19T01:58:27;1.50;;;1.40;;
9526;SDS011;4802;51.494;6.770;2023-03-19T02:01:02;1.07;;;0.93;;
9526;SDS011;4802;51.494;6.770;2023-03-19T02:03:32;1.13;;;1.07;;
9526;SDS011;4802;51.494;6.770;2023-03-19T02:06:05;1.77;;;1.10;;
9526;SDS011;4802;51.494;6.770;2023-03-19T02:08:34;1.50;;;1.40;;
9526;SDS011;4802;51.494;6.770;2023-03-19T02:11:05;1.47;;;1.37;;
9526;SDS011;4802;51.494;6.770;2023-03-19T02:13:35;3.23;;;1.33;;
9526;SDS011;4802;51.494;6.770;2023-03-19T02:16:06;1.50;;;1.40;;
9526;SDS011;4802;51.494;6.770;2023-03-19T02:18:36;3.60;;;1.53;;
9526;SDS011;4802;51.494;6.770;2023-03-19T02:21:06;1.30;;;1.30;;
9526;SDS011;4802;51.494;6.770;2023-03-19T02:23:36;2.00;;;1.00;;
9526;SDS011;4802;51.494;6.770;2023-03-19T02:26:10;1.53;;;1.43;;
9526;SDS011;4802;51.494;6.770;2023-03-19T02:28:42;2.87;;;0.93;;
9526;SDS011;4802;51.494;6.770;2023-03-19T02:31:16;1.90;;;1.80;;
9526;SDS011;4802;51.494;6.770;2023-03-19T02:47:21;1.10;;;1.10;;
9526;SDS011;4802;51.494;6.770;2023-03-19T02:49:51;0.83;;;0.83;;
9526;SDS011;4802;51.494;6.770;2023-03-19T02:52:22;2.00;;;1.40;;
9526;SDS011;4802;51.494;6.770;2023-03-19T02:54:56;3.20;;;1.47;;
9526;SDS011;4802;51.494;6.770;2023-03-19T02:57:29;1.30;;;1.20;;
9526;SDS011;4802;51.494;6.770;2023-03-19T03:00:05;1.30;;;1.23;;
9526;SDS011;4802;51.494;6.770;2023-03-19T03:02:38;3.00;;;1.80;;
9526;SDS011;4802;51.494;6.770;2023-03-19T03:05:10;1.37;;;1.27;;
9526;SDS011;4802;51.494;6.770;2023-03-19T03:07:48;2.60;;;1.27;;
9526;SDS011;4802;51.494;6.770;2023-03-19T03:10:19;1.80;;;1.67;;
9526;SDS011;4802;51.494;6.770;2023-03-19T03:12:48;2.00;;;1.43;;
9526;SDS011;4802;51.494;6.770;2023-03-19T03:15:18;1.43;;;1.33;;
9526;SDS011;4802;51.494;6.770;2023-03-19T03:17:50;1.77;;;1.67;;
9526;SDS011;4802;51.494;6.770;2023-03-19T03:20:23;2.50;;;2.40;;
9526;SDS011;4802;51.494;6.770;2023-03-19T03:22:53;2.67;;;2.47;;
9526;SDS011;4802;51.494;6.770;2023-03-19T03:25:22;1.70;;;1.53;;
9526;SDS011;4802;51.494;6.770;2023-03-19T03:27:51;2.47;;;1.63;;
9526;SDS011;4802;51.494;6.770;2023-03-19T03:30:22;1.73;;;1.63;;
9526;SDS011;4802;51.494;6.770;2023-03-19T03:32:53;5.83;;;2.03;;
9526;SDS011;4802;51.494;6.770;2023-03-19T03:35:23;5.47;;;2.53;;
9526;SDS011;4802;51.494;6.770;2023-03-19T03:37:53;3.03;;;1.87;;
9526;SDS011;4802;51.494;6.770;2023-03-19T03:40:31;2.30;;;2.10;;
9526;SDS011;4802;51.494;6.770;2023-03-19T03:43:02;1.13;;;1.13;;
9526;SDS011;4802;51.494;6.770;2023-03-19T03:45:31;5.00;;;2.20;;
9526;SDS011;4802;51.494;6.770;2023-03-19T03:48:02;2.03;;;1.93;;
9526;SDS011;4802;51.494;6.770;2023-03-19T03:50:33;2.20;;;2.10;;
9526;SDS011;4802;51.494;6.770;2023-03-19T03:53:05;2.90;;;2.30;;
9526;SDS011;4802;51.494;6.770;2023-03-19T03:55:40;1.97;;;1.87;;
9526;SDS011;4802;51.494;6.770;2023-03-19T03:58:09;3.70;;;2.53;;
9526;SDS011;4802;51.494;6.770;2023-03-19T04:00:43;1.80;;;1.40;;
9526;SDS011;4802;51.494;6.770;2023-03-19T04:03:15;3.87;;;1.97;;
9526;SDS011;4802;51.494;6.770;2023-03-19T04:05:44;2.53;;;2.20;;
9526;SDS011;4802;51.494;6.770;2023-03-19T04:08:14;1.60;;;1.50;;
9526;SDS011;4802;51.494;6.770;2023-03-19T04:10:43;2.10;;;2.00;;
9526;SDS011;4802;51.494;6.770;2023-03-19T04:13:14;1.70;;;1.70;;
9526;SDS011;4802;51.494;6.770;2023-03-19T04:15:45;4.27;;;1.53;;
9526;SDS011;4802;51.494;6.770;2023-03-19T04:18:21;4.30;;;2.10;;
9526;SDS011;4802;51.494;6.770;2023-03-19T04:20:50;1.90;;;1.63;;
9526;SDS011;4802;51.494;6.770;2023-03-19T04:23:22;2.70;;;2.50;;
9526;SDS011;4802;51.494;6.770;2023-03-19T04:25:51;2.03;;;1.80;;
9526;SDS011;4802;51.494;6.770;2023-03-19T04:28:21;13.77;;;2.77;;
9526;SDS011;4802;51.494;6.770;2023-03-19T04:30:50;2.00;;;1.90;;
9526;SDS011;4802;51.494;6.770;2023-03-19T04:33:24;2.83;;;2.40;;
9526;SDS011;4802;51.494;6.770;2023-03-19T04:35:55;4.57;;;1.60;;
9526;SDS011;4802;51.494;6.770;2023-03-19T04:38:24;1.60;;;1.60;;
9526;SDS011;4802;51.494;6.770;2023-03-19T04:40:53;1.70;;;1.60;;
9526;SDS011;4802;51.494;6.770;2023-03-19T04:43:22;3.80;;;1.80;;
9526;SDS011;4802;51.494;6.770;2023-03-19T04:45:51;1.80;;;1.80;;
9526;SDS011;4802;51.494;6.770;2023-03-19T04:48:22;2.23;;;1.83;;
9526;SDS011;4802;51.494;6.770;2023-03-19T04:50:51;1.70;;;1.63;;
9526;SDS011;4802;51.494;6.770;2023-03-19T04:53:22;2.10;;;1.90;;
9526;SDS011;4802;51.494;6.770;2023-03-19T04:55:52;1.50;;;1.40;;
9526;SDS011;4802;51.494;6.770;2023-03-19T04:58:22;3.17;;;1.80;;
9526;SDS011;4802;51.494;6.770;2023-03-19T05:00:52;4.27;;;2.53;;
9526;SDS011;4802;51.494;6.770;2023-03-19T05:03:22;1.83;;;1.73;;
9526;SDS011;4802;51.494;6.770;2023-03-19T05:05:52;3.87;;;2.27;;
9526;SDS011;4802;51.494;6.770;2023-03-19T05:08:21;5.17;;;2.30;;
9526;SDS011;4802;51.494;6.770;2023-03-19T05:10:50;2.70;;;2.50;;
9526;SDS011;4802;51.494;6.770;2023-03-19T05:13:19;1.63;;;1.53;;
9526;SDS011;4802;51.494;6.770;2023-03-19T05:15:48;2.07;;;1.87;;
9526;SDS011;4802;51.494;6.770;2023-03-19T05:18:20;2.57;;;2.37;;
9526;SDS011;4802;51.494;6.770;2023-03-19T05:20:53;2.40;;;1.90;;
9526;SDS011;4802;51.494;6.770;2023-03-19T05:23:22;1.50;;;1.37;;
9526;SDS011;4802;51.494;6.770;2023-03-19T05:25:52;5.77;;;1.33;;
9526;SDS011;4802;51.494;6.770;2023-03-19T05:28:22;1.53;;;1.43;;
9526;SDS011;4802;51.494;6.770;2023-03-19T05:30:51;1.93;;;1.73;;
9526;SDS011;4802;51.494;6.770;2023-03-19T05:33:20;4.50;;;2.03;;
9526;SDS011;4802;51.494;6.770;2023-03-19T05:35:54;3.27;;;1.60;;
9526;SDS011;4802;51.494;6.770;2023-03-19T05:38:23;2.20;;;1.20;;
9526;SDS011;4802;51.494;6.770;2023-03-19T05:40:52;1.77;;;1.77;;
9526;SDS011;4802;51.494;6.770;2023-03-19T05:43:21;3.30;;;3.10;;
9526;SDS011;4802;51.494;6.770;2023-03-19T05:45:51;1.80;;;1.70;;
9526;SDS011;4802;51.494;6.770;2023-03-19T05:48:20;2.10;;;2.00;;
9526;SDS011;4802;51.494;6.770;2023-03-19T05:50:49;2.33;;;1.63;;
9526;SDS011;4802;51.494;6.770;2023-03-19T05:53:24;1.80;;;1.63;;
9526;SDS011;4802;51.494;6.770;2023-03-19T05:55:53;1.70;;;1.53;;
9526;SDS011;4802;51.494;6.770;2023-03-19T05:58:22;2.33;;;1.50;;
9526;SDS011;4802;51.494;6.770;2023-03-19T06:00:53;3.70;;;2.30;;
9526;SDS011;4802;51.494;6.770;2023-03-19T06:03:24;3.23;;;1.90;;
9526;SDS011;4802;51.494;6.770;2023-03-19T06:05:54;2.20;;;2.10;;
9526;SDS011;4802;51.494;6.770;2023-03-19T06:08:24;14.87;;;3.10;;
9526;SDS011;4802;51.494;6.770;2023-03-19T06:10:53;2.80;;;2.60;;
9526;SDS011;4802;51.494;6.770;2023-03-19T06:13:22;15.53;;;2.93;;
9526;SDS011;4802;51.494;6.770;2023-03-19T06:15:53;3.93;;;2.10;;
9526;SDS011;4802;51.494;6.770;2023-03-19T06:18:22;3.53;;;3.30;;
9526;SDS011;4802;51.494;6.770;2023-03-19T06:20:51;2.80;;;2.57;;
9526;SDS011;4802;51.494;6.770;2023-03-19T06:23:21;2.30;;;2.10;;
9526;SDS011;4802;51.494;6.770;2023-03-19T06:25:51;1.77;;;1.67;;
9526;SDS011;4802;51.494;6.770;2023-03-19T06:28:20;1.60;;;1.50;;
9526;SDS011;4802;51.494;6.770;2023-03-19T06:30:49;1.67;;;1.57;;
9526;SDS011;4802;51.494;6.770;2023-03-19T06:33:19;2.47;;;2.37;;
9526;SDS011;4802;51.494;6.770;2023-03-19T06:35:48;2.30;;;2.10;;
9526;SDS011;4802;51.494;6.770;2023-03-19T06:38:18;3.17;;;2.70;;
9526;SDS011;4802;51.494;6.770;2023-03-19T06:40:47;2.73;;;2.57;;
9526;SDS011;4802;51.494;6.770;2023-03-19T06:43:18;2.53;;;2.33;;
9526;SDS011;4802;51.494;6.770;2023-03-19T06:45:47;2.93;;;2.80;;
9526;SDS011;4802;51.494;6.770;2023-03-19T06:48:17;7.00;;;2.57;;
9526;SDS011;4802;51.494;6.770;2023-03-19T06:50:47;3.70;;;2.33;;
9526;SDS011;4802;51.494;6.770;2023-03-19T06:53:15;3.73;;;2.90;;
9526;SDS011;4802;51.494;6.770;2023-03-19T06:55:45;1.90;;;1.80;;
9526;SDS011;4802;51.494;6.770;2023-03-19T06:58:14;2.10;;;1.90;;
9526;SDS011;4802;51.494;6.770;2023-03-19T07:00:49;1.83;;;1.60;;
9526;SDS011;4802;51.494;6.770;2023-03-19T07:03:20;3.40;;;3.10;;
9526;SDS011;4802;51.494;6.770;2023-03-19T07:05:49;3.20;;;3.00;;
9526;SDS011;4802;51.494;6.770;2023-03-19T07:08:19;4.23;;;2.00;;
9526;SDS011;4802;51.494;6.770;2023-03-19T07:10:51;4.80;;;3.17;;
9526;SDS011;4802;51.494;6.770;2023-03-19T07:13:26;6.40;;;4.07;;
9526;SDS011;4802;51.494;6.770;2023-03-19T07:15:57;3.53;;;3.23;;
9526;SDS011;4802;51.494;6.770;2023-03-19T07:18:26;7.10;;;4.20;;
9526;SDS011;4802;51.494;6.770;2023-03-19T07:20:55;16.80;;;4.27;;
9526;SDS011;4802;51.494;6.770;2023-03-19T07:23:24;3.70;;;3.40;;
9526;SDS011;4802;51.494;6.770;2023-03-19T07:25:54;10.43;;;2.67;;
9526;SDS011;4802;51.494;6.770;2023-03-19T07:28:24;4.70;;;2.57;;
9526;SDS011;4802;51.494;6.770;2023-03-19T07:30:53;2.73;;;2.50;;
9526;SDS011;4802;51.494;6.770;2023-03-19T07:33:25;7.77;;;3.90;;
9526;SDS011;4802;51.494;6.770;2023-03-19T07:35:55;10.20;;;3.20;;
9526;SDS011;4802;51.494;6.770;2023-03-19T07:38:24;5.80;;;3.57;;
9526;SDS011;4802;51.494;6.770;2023-03-19T07:40:54;2.73;;;2.27;;
9526;SDS011;4802;51.494;6.770;2023-03-19T07:43:28;4.23;;;3.07;;
9526;SDS011;4802;51.494;6.770;2023-03-19T07:45:58;6.10;;;3.37;;
9526;SDS011;4802;51.494;6.770;2023-03-19T07:48:29;3.83;;;2.93;;
9526;SDS011;4802;51.494;6.770;2023-03-19T07:51:00;13.43;;;2.87;;
9526;SDS011;4802;51.494;6.770;2023-03-19T07:53:31;3.70;;;3.47;;
9526;SDS011;4802;51.494;6.770;2023-03-19T07:56:00;3.60;;;2.73;;
9526;SDS011;4802;51.494;6.770;2023-03-19T07:58:30;5.40;;;2.63;;
9526;SDS011;4802;51.494;6.770;2023-03-19T08:01:02;3.70;;;2.60;;
9526;SDS011;4802;51.494;6.770;2023-03-19T08:03:37;3.70;;;2.83;;
9526;SDS011;4802;51.494;6.770;2023-03-19T08:06:06;8.67;;;3.43;;
9526;SDS011;4802;51.494;6.770;2023-03-19T08:08:36;4.57;;;2.93;;
9526;SDS011;4802;51.494;6.770;2023-03-19T08:11:19;3.50;;;3.17;;
9526;SDS011;4802;51.494;6.770;2023-03-19T08:13:48;4.00;;;2.70;;
9526;SDS011;4802;51.494;6.770;2023-03-19T08:16:22;3.53;;;2.60;;
9526;SDS011;4802;51.494;6.770;2023-03-19T08:18:53;4.87;;;3.43;;
9526;SDS011;4802;51.494;6.770;2023-03-19T08:21:23;2.33;;;2.23;;
9526;SDS011;4802;51.494;6.770;2023-03-19T08:23:54;3.37;;;2.87;;
9526;SDS011;4802;51.494;6.770;2023-03-19T08:26:24;2.37;;;2.17;;
9526;SDS011;4802;51.494;6.770;2023-03-19T08:28:56;2.87;;;2.67;;
9526;SDS011;4802;51.494;6.770;2023-03-19T08:31:39;4.80;;;2.87;;
9526;SDS011;4802;51.494;6.770;2023-03-19T08:34:13;3.40;;;3.10;;
9526;SDS011;4802;51.494;6.770;2023-03-19T08:36:48;3.83;;;3.43;;
9526;SDS011;4802;51.494;6.770;2023-03-19T08:39:18;1.90;;;1.80;;
9526;SDS011;4802;51.494;6.770;2023-03-19T08:41:50;2.40;;;2.30;;
9526;SDS011;4802;51.494;6.770;2023-03-19T08:44:20;3.90;;;3.07;;
9526;SDS011;4802;51.494;6.770;2023-03-19T08:46:58;3.07;;;2.87;;
9526;SDS011;4802;51.494;6.770;2023-03-19T08:49:33;2.57;;;2.37;;
9526;SDS011;4802;51.494;6.770;2023-03-19T08:52:10;2.97;;;2.63;;
9526;SDS011;4802;51.494;6.770;2023-03-19T08:54:41;2.10;;;1.87;;
9526;SDS011;4802;51.494;6.770;2023-03-19T08:57:12;3.57;;;3.27;;
9526;SDS011;4802;51.494;6.770;2023-03-19T08:59:45;3.53;;;3.17;;
9526;SDS011;4802;51.494;6.770;2023-03-19T09:02:14;2.10;;;1.90;;
9526;SDS011;4802;51.494;6.770;2023-03-19T09:04:51;2.53;;;2.13;;
9526;SDS011;4802;51.494;6.770;2023-03-19T09:07:22;3.63;;;2.87;;
9526;SDS011;4802;51.494;6.770;2023-03-19T09:09:59;4.27;;;2.60;;
9526;SDS011;4802;51.494;6.770;2023-03-19T09:12:29;4.37;;;4.00;;
9526;SDS011;4802;51.494;6.770;2023-03-19T09:15:00;2.50;;;2.10;;
9526;SDS011;4802;51.494;6.770;2023-03-19T09:17:30;2.90;;;2.63;;
9526;SDS011;4802;51.494;6.770;2023-03-19T09:20:05;2.93;;;2.47;;
9526;SDS011;4802;51.494;6.770;2023-03-19T09:22:38;2.73;;;2.53;;
9526;SDS011;4802;51.494;6.770;2023-03-19T09:25:08;3.10;;;3.00;;
9526;SDS011;4802;51.494;6.770;2023-03-19T09:27:38;4.40;;;3.83;;
9526;SDS011;4802;51.494;6.770;2023-03-19T09:30:12;2.70;;;2.50;;
9526;SDS011;4802;51.494;6.770;2023-03-19T09:32:43;8.10;;;2.97;;
9526;SDS011;4802;51.494;6.770;2023-03-19T09:35:15;3.27;;;2.97;;
9526;SDS011;4802;51.494;6.770;2023-03-19T09:37:48;2.20;;;2.10;;
9526;SDS011;4802;51.494;6.770;2023-03-19T09:40:32;2.63;;;2.43;;
9526;SDS011;4802;51.494;6.770;2023-03-19T09:45:57;2.53;;;2.40;;
9526;SDS011;4802;51.494;6.770;2023-03-19T09:48:31;3.43;;;3.10;;
9526;SDS011;4802;51.494;6.770;2023-03-19T09:51:04;4.80;;;2.73;;
9526;SDS011;4802;51.494;6.770;2023-03-19T09:53:38;3.93;;;3.20;;
9526;SDS011;4802;51.494;6.770;2023-03-19T09:56:11;15.23;;;4.10;;
9526;SDS011;4802;51.494;6.770;2023-03-19T09:58:47;6.87;;;4.10;;
9526;SDS011;4802;51.494;6.770;2023-03-19T10:01:21;5.10;;;3.40;;
9526;SDS011;4802;51.494;6.770;2023-03-19T10:04:06;3.07;;;2.87;;
9526;SDS011;4802;51.494;6.770;2023-03-19T10:06:41;3.70;;;2.83;;
9526;SDS011;4802;51.494;6.770;2023-03-19T10:09:17;2.60;;;2.40;;
9526;SDS011;4802;51.494;6.770;2023-03-19T10:11:53;4.50;;;2.30;;
9526;SDS011;4802;51.494;6.770;2023-03-19T10:14:40;2.77;;;2.57;;
9526;SDS011;4802;51.494;6.770;2023-03-19T10:17:13;3.93;;;2.07;;
9526;SDS011;4802;51.494;6.770;2023-03-19T10:19:51;3.50;;;2.40;;
9526;SDS011;4802;51.494;6.770;2023-03-19T10:22:31;3.27;;;2.33;;
9526;SDS011;4802;51.494;6.770;2023-03-19T10:25:04;3.27;;;3.00;;
9526;SDS011;4802;51.494;6.770;2023-03-19T10:27:43;2.00;;;1.90;;
9526;SDS011;4802;51.494;6.770;2023-03-19T10:30:35;2.43;;;2.23;;
9526;SDS011;4802;51.494;6.770;2023-03-19T10:33:21;2.77;;;2.53;;
9526;SDS011;4802;51.494;6.770;2023-03-19T10:35:55;2.30;;;1.90;;
9526;SDS011;4802;51.494;6.770;2023-03-19T10:38:28;6.13;;;2.67;;
9526;SDS011;4802;51.494;6.770;2023-03-19T10:44:03;2.33;;;2.10;;
9526;SDS011;4802;51.494;6.770;2023-03-19T10:46:40;3.33;;;3.13;;
9526;SDS011;4802;51.494;6.770;2023-03-19T10:49:11;4.83;;;2.60;;
9526;SDS011;4802;51.494;6.770;2023-03-19T10:51:49;2.47;;;2.27;;
9526;SDS011;4802;51.494;6.770;2023-03-19T10:54:24;2.60;;;2.40;;
9526;SDS011;4802;51.494;6.770;2023-03-19T10:56:54;3.90;;;2.47;;
9526;SDS011;4802;51.494;6.770;2023-03-19T10:59:30;2.60;;;2.40;;
9526;SDS011;4802;51.494;6.770;2023-03-19T11:02:30;2.80;;;2.60;;
9526;SDS011;4802;51.494;6.770;2023-03-19T11:05:24;1.90;;;1.67;;
9526;SDS011;4802;51.494;6.770;2023-03-19T11:08:16;5.00;;;2.20;;
9526;SDS011;4802;51.494;6.770;2023-03-19T11:14:24;1.80;;;1.70;;
9526;SDS011;4802;51.494;6.770;2023-03-19T11:17:25;2.90;;;2.70;;
9526;SDS011;4802;51.494;6.770;2023-03-19T11:20:07;4.50;;;3.43;;
9526;SDS011;4802;51.494;6.770;2023-03-19T11:23:05;4.77;;;3.10;;
9526;SDS011;4802;51.494;6.770;2023-03-19T11:25:42;3.30;;;2.83;;
9526;SDS011;4802;51.494;6.770;2023-03-19T11:28:41;2.57;;;2.37;;
9526;SDS011;4802;51.494;6.770;2023-03-19T11:47:02;4.50;;;2.90;;
9526;SDS011;4802;51.494;6.770;2023-03-19T11:50:02;2.63;;;2.43;;
9526;SDS011;4802;51.494;6.770;2023-03-19T11:52:52;3.93;;;2.73;;
9526;SDS011;4802;51.494;6.770;2023-03-19T11:55:40;9.33;;;3.97;;
9526;SDS011;4802;51.494;6.770;2023-03-19T12:01:07;6.60;;;2.90;;
9526;SDS011;4802;51.494;6.770;2023-03-19T12:06:37;3.37;;;3.00;;
9526;SDS011;4802;51.494;6.770;2023-03-19T12:09:10;2.90;;;2.70;;
9526;SDS011;4802;51.494;6.770;2023-03-19T12:11:45;12.80;;;2.80;;
9526;SDS011;4802;51.494;6.770;2023-03-19T12:14:21;3.00;;;2.17;;
9526;SDS011;4802;51.494;6.770;2023-03-19T12:17:07;3.90;;;3.20;;
9526;SDS011;4802;51.494;6.770;2023-03-19T12:19:48;3.30;;;2.27;;
9526;SDS011;4802;51.494;6.770;2023-03-19T12:22:28;9.33;;;4.97;;
9526;SDS011;4802;51.494;6.770;2023-03-19T12:25:05;4.00;;;2.50;;
9526;SDS011;4802;51.494;6.770;2023-03-19T12:27:39;2.17;;;1.70;;
9526;SDS011;4802;51.494;6.770;2023-03-19T12:30:14;2.67;;;2.47;;
9526;SDS011;4802;51.494;6.770;2023-03-19T12:32:51;2.33;;;1.70;;
9526;SDS011;4802;51.494;6.770;2023-03-19T12:35:25;1.40;;;1.30;;
9526;SDS011;4802;51.494;6.770;2023-03-19T12:38:04;1.60;;;1.23;;
9526;SDS011;4802;51.494;6.770;2023-03-19T12:40:40;3.23;;;1.13;;
9526;SDS011;4802;51.494;6.770;2023-03-19T12:43:16;1.20;;;1.20;;
9526;SDS011;4802;51.494;6.770;2023-03-19T12:45:51;1.10;;;1.10;;
9526;SDS011;4802;51.494;6.770;2023-03-19T12:48:34;1.90;;;1.20;;
9526;SDS011;4802;51.494;6.770;2023-03-19T12:51:16;2.57;;;1.43;;
9526;SDS011;4802;51.494;6.770;2023-03-19T12:53:59;1.60;;;1.50;;
9526;SDS011;4802;51.494;6.770;2023-03-19T12:56:46;2.30;;;1.33;;
9526;SDS011;4802;51.494;6.770;2023-03-19T12:59:18;1.40;;;1.30;;
9526;SDS011;4802;51.494;6.770;2023-03-19T13:02:07;2.13;;;1.73;;
9526;SDS011;4802;51.494;6.770;2023-03-19T13:04:46;4.63;;;1.37;;
9526;SDS011;4802;51.494;6.770;2023-03-19T13:07:32;1.40;;;1.30;;
9526;SDS011;4802;51.494;6.770;2023-03-19T13:10:24;0.87;;;0.87;;
9526;SDS011;4802;51.494;6.770;2023-03-19T13:13:00;1.77;;;1.63;;
9526;SDS011;4802;51.494;6.770;2023-03-19T13:15:32;2.03;;;1.93;;
9526;SDS011;4802;51.494;6.770;2023-03-19T13:18:10;3.03;;;1.67;;
9526;SDS011;4802;51.494;6.770;2023-03-19T13:21:15;1.40;;;1.30;;
9526;SDS011;4802;51.494;6.770;2023-03-19T13:24:02;1.10;;;1.10;;
9526;SDS011;4802;51.494;6.770;2023-03-19T13:26:40;1.27;;;1.17;;
9526;SDS011;4802;51.494;6.770;2023-03-19T13:29:18;1.37;;;1.20;;
9526;SDS011;4802;51.494;6.770;2023-03-19T13:31:58;5.03;;;2.47;;
9526;SDS011;4802;51.494;6.770;2023-03-19T13:34:43;1.30;;;1.20;;
9526;SDS011;4802;51.494;6.770;2023-03-19T13:37:40;1.40;;;1.30;;
9526;SDS011;4802;51.494;6.770;2023-03-19T13:40:37;1.20;;;1.20;;
9526;SDS011;4802;51.494;6.770;2023-03-19T13:49:31;1.13;;;0.90;;
9526;SDS011;4802;51.494;6.770;2023-03-19T13:57:52;2.63;;;1.20;;
9526;SDS011;4802;51.494;6.770;2023-03-19T14:00:54;1.57;;;1.47;;
9526;SDS011;4802;51.494;6.770;2023-03-19T14:03:29;0.80;;;0.80;;
9526;SDS011;4802;51.494;6.770;2023-03-19T14:11:56;7.93;;;3.07;;
9526;SDS011;4802;51.494;6.770;2023-03-19T14:14:51;3.20;;;2.43;;
9526;SDS011;4802;51.494;6.770;2023-03-19T14:17:29;1.60;;;1.50;;
9526;SDS011;4802;51.494;6.770;2023-03-19T14:20:21;1.53;;;1.20;;
9526;SDS011;4802;51.494;6.770;2023-03-19T14:23:16;1.43;;;0.87;;
9526;SDS011;4802;51.494;6.770;2023-03-19T14:26:00;1.60;;;1.50;;
9526;SDS011;4802;51.494;6.770;2023-03-19T14:28:51;1.13;;;1.10;;
9526;SDS011;4802;51.494;6.770;2023-03-19T14:31:33;1.60;;;1.50;;
9526;SDS011;4802;51.494;6.770;2023-03-19T14:34:19;2.30;;;1.97;;
9526;SDS011;4802;51.494;6.770;2023-03-19T14:36:55;3.53;;;2.10;;
9526;SDS011;4802;51.494;6.770;2023-03-19T14:39:44;1.60;;;1.50;;
9526;SDS011;4802;51.494;6.770;2023-03-19T14:42:51;2.50;;;2.13;;
9526;SDS011;4802;51.494;6.770;2023-03-19T14:45:33;1.60;;;1.50;;
9526;SDS011;4802;51.494;6.770;2023-03-19T14:48:42;3.53;;;1.30;;
9526;SDS011;4802;51.494;6.770;2023-03-19T14:51:52;1.53;;;1.50;;
9526;SDS011;4802;51.494;6.770;2023-03-19T14:54:43;5.80;;;2.47;;
9526;SDS011;4802;51.494;6.770;2023-03-19T14:57:32;3.50;;;3.07;;
9526;SDS011;4802;51.494;6.770;2023-03-19T15:00:17;14.73;;;3.93;;
9526;SDS011;4802;51.494;6.770;2023-03-19T15:06:03;3.17;;;2.10;;
9526;SDS011;4802;51.494;6.770;2023-03-19T15:08:37;3.73;;;2.20;;
9526;SDS011;4802;51.494;6.770;2023-03-19T15:11:37;3.70;;;2.20;;
9526;SDS011;4802;51.494;6.770;2023-03-19T15:14:16;2.67;;;1.63;;
9526;SDS011;4802;51.494;6.770;2023-03-19T15:16:51;7.03;;;4.70;;
9526;SDS011;4802;51.494;6.770;2023-03-19T15:19:26;5.00;;;3.10;;
9526;SDS011;4802;51.494;6.770;2023-03-19T15:22:08;2.77;;;1.70;;
9526;SDS011;4802;51.494;6.770;2023-03-19T15:24:47;1.80;;;1.70;;
9526;SDS011;4802;51.494;6.770;2023-03-19T15:27:20;1.70;;;1.60;;
9526;SDS011;4802;51.494;6.770;2023-03-19T15:29:51;4.90;;;2.00;;
9526;SDS011;4802;51.494;6.770;2023-03-19T15:32:40;1.37;;;1.37;;
9526;SDS011;4802;51.494;6.770;2023-03-19T15:35:25;2.00;;;1.47;;
9526;SDS011;4802;51.494;6.770;2023-03-19T15:46:30;3.87;;;2.37;;
9526;SDS011;4802;51.494;6.770;2023-03-19T15:49:04;7.30;;;3.20;;
9526;SDS011;4802;51.494;6.770;2023-03-19T15:51:41;2.43;;;1.63;;
9526;SDS011;4802;51.494;6.770;2023-03-19T15:54:26;2.10;;;1.73;;
9526;SDS011;4802;51.494;6.770;2023-03-19T15:56:59;2.93;;;1.77;;
9526;SDS011;4802;51.494;6.770;2023-03-19T15:59:30;2.83;;;1.57;;
9526;SDS011;4802;51.494;6.770;2023-03-19T16:02:10;2.00;;;1.63;;
9526;SDS011;4802;51.494;6.770;2023-03-19T16:04:48;2.23;;;1.60;;
9526;SDS011;4802;51.494;6.770;2023-03-19T16:07:39;2.00;;;1.03;;
9526;SDS011;4802;51.494;6.770;2023-03-19T16:10:35;4.70;;;2.27;;
9526;SDS011;4802;51.494;6.770;2023-03-19T16:13:27;2.50;;;1.63;;
9526;SDS011;4802;51.494;6.770;2023-03-19T16:16:01;1.13;;;0.90;;
9526;SDS011;4802;51.494;6.770;2023-03-19T16:18:56;1.50;;;1.40;;
9526;SDS011;4802;51.494;6.770;2023-03-19T16:21:27;0.80;;;0.80;;
9526;SDS011;4802;51.494;6.770;2023-03-19T16:24:08;1.50;;;1.40;;
9526;SDS011;4802;51.494;6.770;2023-03-19T16:26:42;3.57;;;1.67;;
9526;SDS011;4802;51.494;6.770;2023-03-19T16:29:25;1.40;;;1.30;;
9526;SDS011;4802;51.494;6.770;2023-03-19T16:32:03;2.27;;;1.40;;
9526;SDS011;4802;51.494;6.770;2023-03-19T16:34:40;1.90;;;1.80;;
9526;SDS011;4802;51.494;6.770;2023-03-19T16:37:26;1.33;;;1.23;;
9526;SDS011;4802;51.494;6.770;2023-03-19T16:39:58;1.40;;;1.30;;
9526;SDS011;4802;51.494;6.770;2023-03-19T16:42:35;13.50;;;1.33;;
9526;SDS011;4802;51.494;6.770;2023-03-19T16:45:18;1.57;;;1.47;;
9526;SDS011;4802;51.494;6.770;2023-03-19T16:48:03;1.73;;;1.20;;
9526;SDS011;4802;51.494;6.770;2023-03-19T16:50:46;2.83;;;1.27;;
9526;SDS011;4802;51.494;6.770;2023-03-19T16:53:38;2.03;;;1.90;;
9526;SDS011;4802;51.494;6.770;2023-03-19T16:56:28;5.67;;;1.17;;
9526;SDS011;4802;51.494;6.770;2023-03-19T16:59:11;1.63;;;1.53;;
9526;SDS011;4802;51.494;6.770;2023-03-19T17:01:49;2.20;;;0.90;;
9526;SDS011;4802;51.494;6.770;2023-03-19T17:04:46;2.10;;;1.40;;
9526;SDS011;4802;51.494;6.770;2023-03-19T17:07:45;3.60;;;1.10;;
9526;SDS011;4802;51.494;6.770;2023-03-19T17:10:17;1.50;;;1.23;;
9526;SDS011;4802;51.494;6.770;2023-03-19T17:12:53;2.40;;;2.30;;
9526;SDS011;4802;51.494;6.770;2023-03-19T17:15:23;1.50;;;1.13;;
9526;SDS011;4802;51.494;6.770;2023-03-19T17:18:03;1.40;;;1.30;;
9526;SDS011;4802;51.494;6.770;2023-03-19T17:20:51;1.00;;;1.00;;
9526;SDS011;4802;51.494;6.770;2023-03-19T17:23:33;5.93;;;1.60;;
9526;SDS011;4802;51.494;6.770;2023-03-19T17:26:17;1.37;;;1.27;;
9526;SDS011;4802;51.494;6.770;2023-03-19T17:28:48;2.13;;;1.93;;
9526;SDS011;4802;51.494;6.770;2023-03-19T17:31:34;1.20;;;1.10;;
9526;SDS011;4802;51.494;6.770;2023-03-19T17:34:08;6.10;;;2.17;;
9526;SDS011;4802;51.494;6.770;2023-03-19T17:37:13;3.73;;;1.20;;
9526;SDS011;4802;51.494;6.770;2023-03-19T17:39:48;4.27;;;1.63;;
9526;SDS011;4802;51.494;6.770;2023-03-19T17:42:35;7.77;;;2.40;;
9526;SDS011;4802;51.494;6.770;2023-03-19T17:45:11;6.00;;;2.03;;
9526;SDS011;4802;51.494;6.770;2023-03-19T17:47:43;1.17;;;1.10;;
9526;SDS011;4802;51.494;6.770;2023-03-19T17:50:29;6.43;;;1.83;;
9526;SDS011;4802;51.494;6.770;2023-03-19T17:53:07;3.60;;;1.40;;
9526;SDS011;4802;51.494;6.770;2023-03-19T17:55:41;1.70;;;1.60;;
9526;SDS011;4802;51.494;6.770;2023-03-19T17:58:14;1.70;;;1.60;;
9526;SDS011;4802;51.494;6.770;2023-03-19T18:00:46;3.30;;;1.63;;
9526;SDS011;4802;51.494;6.770;2023-03-19T18:03:18;1.80;;;1.70;;
9526;SDS011;4802;51.494;6.770;2023-03-19T18:05:57;3.33;;;2.00;;
9526;SDS011;4802;51.494;6.770;2023-03-19T18:11:33;4.80;;;1.73;;
9526;SDS011;4802;51.494;6.770;2023-03-19T18:14:17;2.73;;;1.67;;
9526;SDS011;4802;51.494;6.770;2023-03-19T18:16:47;2.70;;;2.43;;
9526;SDS011;4802;51.494;6.770;2023-03-19T18:19:19;4.30;;;3.90;;
9526;SDS011;4802;51.494;6.770;2023-03-19T18:21:52;3.53;;;3.23;;
9526;SDS011;4802;51.494;6.770;2023-03-19T18:24:21;3.33;;;3.07;;
9526;SDS011;4802;51.494;6.770;2023-03-19T18:27:03;8.20;;;3.97;;
9526;SDS011;4802;51.494;6.770;2023-03-19T18:29:33;5.53;;;4.70;;